createdAt,value
2023-01-07T00:01:49.795Z,99645.14
2023-01-07T00:06:52.923Z,99646.61
2023-01-07T00:11:55.861Z,99658.70
2023-01-07T00:16:58.823Z,99651.23
2023-01-07T00:22:02.234Z,99651.52
2023-01-07T00:27:05.215Z,99660.81
2023-01-07T00:32:08.160Z,99674.30
2023-01-07T00:37:29.725Z,99677.33
2023-01-07T00:42:51.470Z,99687.05
2023-01-07T00:47:54.501Z,99700.55
2023-01-07T00:52:58.059Z,99712.81
2023-01-07T00:58:01.021Z,99725.09
2023-01-07T01:03:04.081Z,99729.57
2023-01-07T01:08:07.853Z,99734.05
2023-01-07T01:13:16.717Z,99740.77
2023-01-07T01:18:20.972Z,99744.64
2023-01-07T01:23:23.901Z,99744.13
2023-01-07T01:28:26.816Z,99731.95
2023-01-07T01:33:29.951Z,99728.55
2023-01-07T01:38:32.908Z,99739.30
2023-01-07T01:43:41.818Z,99749.09
2023-01-07T01:49:28.690Z,99754.98
2023-01-07T01:54:33.285Z,99751.79
2023-01-07T01:59:40.921Z,99768.32
2023-01-07T02:04:43.998Z,99775.09
2023-01-07T02:10:15.796Z,99775.29
2023-01-07T02:15:49.933Z,99772.85
2023-01-07T02:21:21.723Z,99775.33
2023-01-07T02:26:45.700Z,99778.86
2023-01-07T02:32:01.576Z,99777.92
2023-01-07T02:38:08.218Z,99783.52
2023-01-07T02:43:26.107Z,99781.67
2023-01-07T02:48:30.903Z,99780.75
2023-01-07T02:53:34.485Z,99783.23
2023-01-07T02:59:04.293Z,99778.31
2023-01-07T03:04:19.435Z,99774.55
2023-01-07T03:09:44.676Z,99783.13
2023-01-07T03:14:57.529Z,99786.38
2023-01-07T03:20:01.776Z,99790.10
2023-01-07T03:25:06.945Z,99788.89
2023-01-07T03:30:15.629Z,99795.05
2023-01-07T03:35:22.322Z,99791.26
2023-01-07T03:40:25.393Z,99787.51
2023-01-07T03:45:29.491Z,99788.07
2023-01-07T03:50:32.478Z,99795.80
2023-01-07T03:55:35.591Z,99785.42
2023-01-07T04:00:38.587Z,99790.23
2023-01-07T04:05:41.525Z,99793.31
2023-01-07T04:10:44.575Z,99785.72
2023-01-07T04:15:47.485Z,99773.41
2023-01-07T04:20:50.484Z,99777.90
2023-01-07T04:25:53.463Z,99781.02
2023-01-07T04:30:59.902Z,99780.11
2023-01-07T04:36:04.539Z,99785.36
2023-01-07T04:41:07.503Z,99793.06
2023-01-07T04:46:10.491Z,99799.83
2023-01-07T04:51:13.488Z,99804.92
2023-01-07T04:56:16.427Z,99807.94
2023-01-07T05:01:19.503Z,99807.52
2023-01-07T05:06:22.647Z,99808.48
2023-01-07T05:11:25.622Z,99816.55
2023-01-07T05:16:28.606Z,99824.36
2023-01-07T05:21:31.656Z,99831.48
2023-01-07T05:26:34.673Z,99829.91
2023-01-07T05:31:37.679Z,99831.73
2023-01-07T05:36:40.651Z,99836.42
2023-01-07T05:41:43.575Z,99844.66
2023-01-07T05:46:46.520Z,99850.84
2023-01-07T05:51:49.487Z,99853.80
2023-01-07T05:56:52.417Z,99854.46
2023-01-07T06:01:55.384Z,99855.06
2023-01-07T06:06:58.317Z,99858.23
2023-01-07T06:12:01.256Z,99865.23
2023-01-07T06:17:04.185Z,99869.25
2023-01-07T06:22:07.237Z,99878.45
2023-01-07T06:27:10.975Z,99878.90
2023-01-07T06:32:13.951Z,99877.67
2023-01-07T06:37:18.188Z,99873.92
2023-01-07T06:42:21.135Z,99877.52
2023-01-07T06:47:26.249Z,99878.27
2023-01-07T06:52:29.201Z,99883.92
2023-01-07T06:57:32.544Z,99886.57
2023-01-07T07:02:35.590Z,99886.34
2023-01-07T07:07:38.807Z,99891.87
2023-01-07T07:12:42.227Z,99900.48
2023-01-07T07:17:45.327Z,99903.14
2023-01-07T07:22:49.088Z,99901.95
2023-01-07T07:27:52.346Z,99905.90
2023-01-07T07:32:55.317Z,99917.13
2023-01-07T07:37:58.236Z,99927.29
2023-01-07T07:43:10.724Z,99931.73
2023-01-07T07:48:16.641Z,99935.27
2023-01-07T07:53:20.193Z,99939.53
2023-01-07T07:58:23.592Z,99940.78
2023-01-07T08:03:26.580Z,99940.27
2023-01-07T08:08:31.982Z,99938.23
2023-01-07T08:13:35.680Z,99938.33
2023-01-07T08:18:40.044Z,99932.91
2023-01-07T08:23:42.998Z,99931.79
2023-01-07T08:28:46.875Z,99934.41
2023-01-07T08:33:50.409Z,99935.62
2023-01-07T08:38:55.444Z,99933.26
2023-01-07T08:43:58.449Z,99939.34
2023-01-07T08:49:01.431Z,99940.31
2023-01-07T08:54:04.776Z,99943.33
2023-01-07T08:59:07.833Z,99944.38
2023-01-07T09:04:10.789Z,99943.21
2023-01-07T09:09:16.699Z,99943.61
2023-01-07T09:14:19.627Z,99935.70
2023-01-07T09:19:22.831Z,99936.62
2023-01-07T09:24:25.775Z,99940.06
2023-01-07T09:29:28.698Z,99939.42
2023-01-07T09:34:32.322Z,99934.23
2023-01-07T09:39:35.262Z,99945.48
2023-01-07T09:45:05.838Z,99943.73
2023-01-07T09:50:20.469Z,99941.66
2023-01-07T09:55:33.714Z,99943.20
2023-01-07T10:00:41.230Z,99941.48
2023-01-07T10:06:13.440Z,99944.34
2023-01-07T10:11:34.421Z,99938.59
2023-01-07T10:16:57.068Z,99938.45
2023-01-07T10:22:29.196Z,99933.38
2023-01-07T10:27:40.697Z,99925.97
2023-01-07T10:32:46.350Z,99926.34
2023-01-07T10:37:49.474Z,99920.46
2023-01-07T10:43:40.383Z,99910.02
2023-01-07T10:49:11.825Z,99904.31
2023-01-07T10:54:59.388Z,99901.02
2023-01-07T11:00:08.064Z,99892.27
2023-01-07T11:05:14.158Z,99880.92
2023-01-07T11:10:33.589Z,99877.70
2023-01-07T11:15:44.390Z,99877.41
2023-01-07T11:20:54.492Z,99874.52
2023-01-07T11:26:14.071Z,99873.31
2023-01-07T11:31:17.732Z,99876.35
2023-01-07T11:36:20.758Z,99879.19
2023-01-07T11:41:27.012Z,99877.55
2023-01-07T11:46:31.746Z,99879.14
2023-01-07T11:51:40.735Z,99869.38
2023-01-07T11:56:43.710Z,99868.48
2023-01-07T12:01:59.040Z,99865.56
2023-01-07T12:07:16.024Z,99868.93
2023-01-07T12:12:39.512Z,99865.78
2023-01-07T12:17:46.568Z,99867.27
2023-01-07T12:23:21.418Z,99861.83
2023-01-07T12:28:49.670Z,99859.95
2023-01-07T12:34:10.823Z,99861.23
2023-01-07T12:39:34.627Z,99852.94
2023-01-07T12:44:46.891Z,99848.48
2023-01-07T12:50:35.321Z,99833.95
2023-01-07T12:55:50.600Z,99828.23
2023-01-07T13:01:07.768Z,99827.83
2023-01-07T13:06:50.923Z,99828.68
2023-01-07T13:12:47.485Z,99820.86
2023-01-07T13:17:54.116Z,99816.17
2023-01-07T13:22:58.088Z,99810.16
2023-01-07T13:28:41.689Z,99803.25
2023-01-07T13:34:08.067Z,99801.66
2023-01-07T13:39:40.249Z,99799.98
2023-01-07T13:44:45.980Z,99801.11
2023-01-07T13:50:02.593Z,99799.52
2023-01-07T13:55:37.746Z,99798.77
2023-01-07T14:00:48.056Z,99798.25
2023-01-07T14:06:18.385Z,99804.33
2023-01-07T14:11:42.104Z,99805.45
2023-01-07T14:17:13.251Z,99810.89
2023-01-07T14:22:55.505Z,99812.90
2023-01-07T14:28:27.005Z,99815.83
2023-01-07T14:33:47.446Z,99815.59
2023-01-07T14:39:00.516Z,99820.52
2023-01-07T14:44:26.206Z,99812.55
2023-01-07T14:49:48.721Z,99814.05
2023-01-07T14:55:12.840Z,99814.34
2023-01-07T15:00:56.554Z,99817.52
2023-01-07T15:06:26.939Z,99817.19
2023-01-07T15:11:49.433Z,99820.17
2023-01-07T15:16:54.423Z,99824.96
2023-01-07T15:22:19.904Z,99826.36
2023-01-07T15:27:34.134Z,99826.03
2023-01-07T15:32:54.788Z,99833.30
2023-01-07T15:37:58.858Z,99842.17
2023-01-07T15:43:02.887Z,99843.32
2023-01-07T15:48:11.856Z,99836.77
2023-01-07T15:53:14.730Z,99840.91
2023-01-07T15:58:33.863Z,99839.39
2023-01-07T16:03:39.291Z,99848.37
2023-01-07T16:08:44.572Z,99844.17
2023-01-07T16:14:00.250Z,99841.90
2023-01-07T16:19:05.935Z,99840.51
2023-01-07T16:24:16.625Z,99841.25
2023-01-07T16:29:28.939Z,99845.27
2023-01-07T16:34:31.805Z,99839.59
2023-01-07T16:39:47.553Z,99834.59
2023-01-07T16:44:53.617Z,99833.50
2023-01-07T16:50:20.152Z,99832.82
2023-01-07T16:55:47.256Z,99828.65
2023-01-07T17:00:53.830Z,99833.50
2023-01-07T17:06:07.376Z,99831.14
2023-01-07T17:11:28.780Z,99827.82
2023-01-07T17:16:34.352Z,99824.20
2023-01-07T17:21:43.548Z,99821.02
2023-01-07T17:26:46.506Z,99818.29
2023-01-07T17:31:49.506Z,99823.33
2023-01-07T17:36:53.240Z,99826.28
2023-01-07T17:42:16.268Z,99823.14
2023-01-07T17:47:22.375Z,99823.48
2023-01-07T17:52:25.345Z,99821.25
2023-01-07T17:57:28.258Z,99821.14
2023-01-07T18:02:31.869Z,99816.56
2023-01-07T18:07:34.860Z,99812.47
2023-01-07T18:12:40.455Z,99801.62
2023-01-07T18:17:44.817Z,99799.41
2023-01-07T18:22:48.350Z,99807.09
2023-01-07T18:27:55.923Z,99804.69
2023-01-07T18:32:58.871Z,99800.52
2023-01-07T18:38:04.378Z,99800.48
2023-01-07T18:43:07.319Z,99800.45
2023-01-07T18:48:12.726Z,99798.91
2023-01-07T18:53:18.468Z,99798.52
2023-01-07T18:58:22.965Z,99796.58
2023-01-07T19:03:25.901Z,99797.70
2023-01-07T19:08:28.841Z,99786.73
2023-01-07T19:13:31.845Z,99788.31
2023-01-07T19:18:34.831Z,99783.79
2023-01-07T19:23:39.160Z,99787.55
2023-01-07T19:28:43.079Z,99792.45
2023-01-07T19:33:47.160Z,99791.40
2023-01-07T19:38:50.134Z,99785.55
2023-01-07T19:43:59.421Z,99786.63
2023-01-07T19:49:15.464Z,99780.42
2023-01-07T19:54:18.597Z,99780.64
2023-01-07T19:59:21.549Z,99779.63
2023-01-07T20:04:24.893Z,99776.25
2023-01-07T20:09:31.671Z,99774.11
2023-01-07T20:14:34.658Z,99778.35
2023-01-07T20:19:37.607Z,99782.15
2023-01-07T20:24:45.254Z,99780.89
2023-01-07T20:29:48.184Z,99768.91
2023-01-07T20:34:51.107Z,99770.75
2023-01-07T20:39:55.452Z,99762.40
2023-01-07T20:44:58.785Z,99760.52
2023-01-07T20:50:01.752Z,99763.75
2023-01-07T20:55:07.147Z,99759.40
2023-01-07T21:00:11.027Z,99751.10
2023-01-07T21:05:17.084Z,99751.70
2023-01-07T21:10:20.394Z,99749.05
2023-01-07T21:15:24.518Z,99751.25
2023-01-07T21:20:27.472Z,99752.15
2023-01-07T21:25:31.077Z,99754.89
2023-01-07T21:30:35.108Z,99755.81
2023-01-07T21:35:41.456Z,99759.70
2023-01-07T21:40:44.385Z,99762.80
2023-01-07T21:45:47.335Z,99760.19
2023-01-07T21:50:50.263Z,99764.13
2023-01-07T21:55:53.217Z,99765.84
2023-01-07T22:00:56.950Z,99758.33
2023-01-07T22:06:07.244Z,99757.28
2023-01-07T22:11:15.499Z,99753.14
2023-01-07T22:16:21.021Z,99760.72
2023-01-07T22:21:24.587Z,99765.81
2023-01-07T22:26:27.601Z,99764.48
2023-01-07T22:31:38.630Z,99759.48
2023-01-07T22:36:57.669Z,99751.35
2023-01-07T22:42:14.641Z,99753.63
2023-01-07T22:47:22.743Z,99744.58
2023-01-07T22:52:26.654Z,99742.42
2023-01-07T22:57:31.703Z,99739.24
2023-01-07T23:02:34.605Z,99731.98
2023-01-07T23:07:37.541Z,99724.84
2023-01-07T23:12:40.442Z,99721.09
2023-01-07T23:17:43.444Z,99715.05
2023-01-07T23:22:46.821Z,99711.23
2023-01-07T23:27:50.183Z,99708.09
2023-01-07T23:32:53.106Z,99705.65
2023-01-07T23:37:56.205Z,99696.63
2023-01-07T23:42:59.109Z,99698.10
2023-01-07T23:48:02.041Z,99701.20
2023-01-07T23:53:04.951Z,99698.54
2023-01-07T23:58:08.316Z,99691.20
